createdAt,value
2019-05-25T00:01:28.395Z,68
2019-05-25T00:11:28.226Z,69
2019-05-25T00:21:28.332Z,69
2019-05-25T00:31:29.050Z,68
2019-05-25T00:41:27.148Z,68
2019-05-25T00:51:27.827Z,68
2019-05-25T01:01:29.213Z,68
2019-05-25T01:11:28.474Z,68
2019-05-25T01:21:29.386Z,68
2019-05-25T01:31:27.167Z,68
2019-05-25T01:41:27.863Z,69
2019-05-25T01:51:28.977Z,68
2019-05-25T02:01:28.344Z,68
2019-05-25T02:11:29.327Z,68
2019-05-25T02:21:28.345Z,68
2019-05-25T02:31:28.001Z,68
2019-05-25T02:41:27.796Z,68
2019-05-25T02:51:28.487Z,67
2019-05-25T03:01:28.148Z,68
2019-05-25T03:11:28.175Z,68
2019-05-25T03:21:28.876Z,67
2019-05-25T03:31:28.513Z,68
2019-05-25T03:41:28.391Z,68
2019-05-25T03:51:28.416Z,68
2019-05-25T04:01:30.285Z,67
2019-05-25T04:11:28.356Z,67
2019-05-25T04:21:28.549Z,68
2019-05-25T04:31:27.901Z,68
2019-05-25T04:41:29.502Z,67
2019-05-25T04:51:28.064Z,68
2019-05-25T05:01:29.128Z,68
2019-05-25T05:11:27.855Z,68
2019-05-25T05:21:31.964Z,68
2019-05-25T05:31:27.580Z,68
2019-05-25T05:41:32.242Z,68
2019-05-25T05:51:28.588Z,66
2019-05-25T06:01:28.194Z,67
2019-05-25T06:11:28.060Z,67
2019-05-25T06:21:30.202Z,65
2019-05-25T06:31:27.814Z,66
2019-05-25T06:41:29.516Z,65
2019-05-25T06:51:28.796Z,66
2019-05-25T07:01:28.079Z,65
2019-05-25T07:11:33.339Z,64
2019-05-25T07:21:27.641Z,64
2019-05-25T07:31:28.246Z,63
2019-05-25T07:41:28.507Z,64
2019-05-25T07:51:27.845Z,62
2019-05-25T08:01:27.976Z,63
2019-05-25T08:11:33.164Z,61
2019-05-25T08:21:27.012Z,61
2019-05-25T08:31:30.004Z,59
2019-05-25T08:41:27.978Z,60
2019-05-25T08:51:27.818Z,58
2019-05-25T09:01:28.692Z,57
2019-05-25T09:11:27.513Z,58
2019-05-25T09:21:27.395Z,58
2019-05-25T09:31:27.064Z,56
2019-05-25T09:41:28.294Z,50
2019-05-25T09:51:29.244Z,49
2019-05-25T10:01:27.628Z,49
2019-05-25T10:11:33.056Z,50
2019-05-25T10:21:27.188Z,49
2019-05-25T10:31:26.933Z,48
2019-05-25T10:41:27.836Z,45
2019-05-25T10:51:27.908Z,44
2019-05-25T11:01:27.932Z,44
2019-05-25T11:11:26.955Z,47
2019-05-25T11:21:27.082Z,45
2019-05-25T11:31:33.915Z,44
2019-05-25T11:41:26.830Z,47
2019-05-25T11:51:35.233Z,43
2019-05-25T12:01:27.656Z,42
2019-05-25T12:11:27.343Z,42
2019-05-25T12:21:27.810Z,42
2019-05-25T12:31:28.695Z,42
2019-05-25T12:41:27.466Z,44
2019-05-25T12:51:27.447Z,44
2019-05-25T13:01:29.109Z,41
2019-05-25T13:11:28.335Z,42
2019-05-25T13:21:27.827Z,40
2019-05-25T13:31:27.043Z,42
2019-05-25T13:41:27.126Z,42
2019-05-25T13:51:27.151Z,41
2019-05-25T14:01:30.374Z,40
2019-05-25T14:11:27.802Z,39
2019-05-25T14:21:28.331Z,38
2019-05-25T14:31:27.142Z,39
2019-05-25T14:41:27.317Z,40
2019-05-25T14:51:28.499Z,38
2019-05-25T15:01:27.863Z,39
2019-05-25T15:11:30.604Z,38
2019-05-25T15:21:30.001Z,39
2019-05-25T15:31:27.244Z,40
2019-05-25T15:41:28.352Z,38
2019-05-25T15:51:27.993Z,38
2019-05-25T16:01:26.669Z,38
2019-05-25T16:11:27.424Z,41
2019-05-25T16:21:27.749Z,40
2019-05-25T16:31:29.134Z,37
2019-05-25T16:41:27.640Z,39
2019-05-25T16:51:27.350Z,38
2019-05-25T17:01:27.681Z,37
2019-05-25T17:11:27.390Z,36
2019-05-25T17:21:27.502Z,37
2019-05-25T17:31:27.609Z,38
2019-05-25T17:41:27.332Z,37
2019-05-25T17:51:27.188Z,40
2019-05-25T18:01:27.524Z,38
2019-05-25T18:11:27.806Z,38
2019-05-25T18:21:27.329Z,38
2019-05-25T18:31:28.431Z,37
2019-05-25T18:41:28.265Z,37
2019-05-25T18:51:27.230Z,38
2019-05-25T19:01:28.844Z,39
2019-05-25T19:11:27.736Z,39
2019-05-25T19:21:30.169Z,38
2019-05-25T19:31:28.417Z,39
2019-05-25T19:41:26.981Z,38
2019-05-25T19:51:29.059Z,38
2019-05-25T20:01:28.238Z,39
2019-05-25T20:11:27.844Z,39
2019-05-25T20:21:28.143Z,39
2019-05-25T20:31:27.786Z,39
2019-05-25T20:41:28.599Z,40
2019-05-25T20:51:27.919Z,41
2019-05-25T21:01:27.279Z,40
2019-05-25T21:11:27.147Z,42
2019-05-25T21:21:32.526Z,41
2019-05-25T21:31:27.710Z,40
2019-05-25T21:41:28.280Z,40
2019-05-25T21:51:27.240Z,42
2019-05-25T22:01:27.885Z,41
2019-05-25T22:11:29.261Z,40
2019-05-25T22:21:28.383Z,42
2019-05-25T22:31:28.014Z,41
2019-05-25T22:41:28.041Z,42
2019-05-25T22:51:29.378Z,40
2019-05-25T23:01:37.291Z,39
2019-05-25T23:11:27.371Z,41
2019-05-25T23:21:30.218Z,40
2019-05-25T23:31:27.777Z,39
2019-05-25T23:41:28.631Z,44
2019-05-25T23:51:28.654Z,40
